Jard de Caldas, Puerto Rico
Current Conditions -  °F | °C
As of 5:56 AM on Saturday 20 Dec 2014 (Local Time) from TJSJ Reporting Station
Scattered Clouds Scattered Clouds  
Wind Chill: 74°   Ceiling: Unl
Heat Index: 74°   Visibility: 10mi
Dew Point: 69°   Wind: 0mph
Humidity: 85%   Direction: NA
Pressure: 29.98"   Gusts: NA
Location:  18.3754°N, 66.0577°W
Report Text: TJSJ 200956Z 00000KT 10SM FEW028 SCT055 23/21 A2998 RMK AO2 SLP150 T02330206
Loading
Personal Weather Stations






























Interactive Weather Map New forecast layout! Learn more

10-Day Weather Forecast

Advertisements
Track Severe Weather on mobile